sensor_id;sensor_type;location;lat;lon;timestamp;pressure;altitude;pressure_sealevel;temperature;humidity
10115;BME280;5097;43.260;27.812;2022-09-29T00:00:04;99233.59;;;18.38;87.05
10115;BME280;5097;43.260;27.812;2022-09-29T00:02:48;99223.06;;;18.37;87.89
10115;BME280;5097;43.260;27.812;2022-09-29T00:05:33;99219.78;;;18.25;88.49
10115;BME280;5097;43.260;27.812;2022-09-29T00:08:17;99210.44;;;18.29;88.61
10115;BME280;5097;43.260;27.812;2022-09-29T00:11:07;99206.47;;;18.33;87.64
10115;BME280;5097;43.260;27.812;2022-09-29T00:13:51;99197.03;;;18.21;89.88
10115;BME280;5097;43.260;27.812;2022-09-29T00:16:35;99176.41;;;18.31;89.06
10115;BME280;5097;43.260;27.812;2022-09-29T00:19:19;99193.25;;;18.32;89.68
10115;BME280;5097;43.260;27.812;2022-09-29T00:22:02;99204.41;;;18.45;89.07
10115;BME280;5097;43.260;27.812;2022-09-29T00:24:46;99203.88;;;18.41;89.36
10115;BME280;5097;43.260;27.812;2022-09-29T00:27:32;99203.75;;;18.25;89.41
10115;BME280;5097;43.260;27.812;2022-09-29T00:30:16;99208.16;;;18.16;89.83
10115;BME280;5097;43.260;27.812;2022-09-29T00:33:00;99199.41;;;18.06;91.40
10115;BME280;5097;43.260;27.812;2022-09-29T00:35:43;99200.13;;;18.16;90.93
10115;BME280;5097;43.260;27.812;2022-09-29T00:38:27;99203.47;;;18.36;90.05
10115;BME280;5097;43.260;27.812;2022-09-29T00:41:13;99188.06;;;18.12;89.88
10115;BME280;5097;43.260;27.812;2022-09-29T00:44:02;99210.78;;;18.26;90.50
10115;BME280;5097;43.260;27.812;2022-09-29T00:46:49;99210.53;;;18.37;90.40
10115;BME280;5097;43.260;27.812;2022-09-29T00:49:38;99195.47;;;18.36;88.21
10115;BME280;5097;43.260;27.812;2022-09-29T00:52:25;99211.06;;;18.23;88.30
10115;BME280;5097;43.260;27.812;2022-09-29T00:55:15;99206.84;;;18.20;89.29
10115;BME280;5097;43.260;27.812;2022-09-29T00:58:02;99192.69;;;18.02;89.29
10115;BME280;5097;43.260;27.812;2022-09-29T01:00:49;99217.31;;;18.14;90.83
10115;BME280;5097;43.260;27.812;2022-09-29T01:03:36;99168.25;;;17.87;89.76
10115;BME280;5097;43.260;27.812;2022-09-29T01:06:25;99216.34;;;18.15;89.17
10115;BME280;5097;43.260;27.812;2022-09-29T01:09:14;99225.72;;;18.19;89.00
10115;BME280;5097;43.260;27.812;2022-09-29T01:12:00;99208.63;;;18.12;89.31
10115;BME280;5097;43.260;27.812;2022-09-29T01:14:45;99221.47;;;18.26;89.41
10115;BME280;5097;43.260;27.812;2022-09-29T01:17:31;99232.44;;;18.41;88.18
10115;BME280;5097;43.260;27.812;2022-09-29T01:20:17;99212.44;;;18.45;87.92
10115;BME280;5097;43.260;27.812;2022-09-29T01:29:58;99222.25;;;18.63;85.23
10115;BME280;5097;43.260;27.812;2022-09-29T01:32:59;99220.28;;;18.65;84.87
10115;BME280;5097;43.260;27.812;2022-09-29T01:35:53;99235.41;;;18.74;84.64
10115;BME280;5097;43.260;27.812;2022-09-29T01:38:54;99233.06;;;18.79;84.27
10115;BME280;5097;43.260;27.812;2022-09-29T01:41:48;99229.56;;;18.79;84.97
10115;BME280;5097;43.260;27.812;2022-09-29T01:44:38;99218.44;;;18.65;86.51
10115;BME280;5097;43.260;27.812;2022-09-29T01:47:26;99233.91;;;18.80;86.11
10115;BME280;5097;43.260;27.812;2022-09-29T01:50:17;99225.41;;;18.84;86.98
10115;BME280;5097;43.260;27.812;2022-09-29T01:53:06;99229.47;;;18.88;86.29
10115;BME280;5097;43.260;27.812;2022-09-29T01:55:53;99232.84;;;18.90;85.16
10115;BME280;5097;43.260;27.812;2022-09-29T01:58:41;99227.53;;;18.99;84.44
10115;BME280;5097;43.260;27.812;2022-09-29T02:01:33;99238.50;;;19.14;84.41
10115;BME280;5097;43.260;27.812;2022-09-29T02:04:24;99229.00;;;19.19;84.18
10115;BME280;5097;43.260;27.812;2022-09-29T02:07:15;99244.03;;;19.12;85.06
10115;BME280;5097;43.260;27.812;2022-09-29T02:10:03;99243.16;;;19.38;84.39
10115;BME280;5097;43.260;27.812;2022-09-29T02:12:50;99233.28;;;19.38;83.76
10115;BME280;5097;43.260;27.812;2022-09-29T02:15:37;99211.88;;;19.38;83.56
10115;BME280;5097;43.260;27.812;2022-09-29T02:18:27;99236.75;;;19.65;83.63
10115;BME280;5097;43.260;27.812;2022-09-29T02:21:13;99229.00;;;19.62;84.00
10115;BME280;5097;43.260;27.812;2022-09-29T02:23:59;99232.72;;;19.61;84.95
10115;BME280;5097;43.260;27.812;2022-09-29T02:26:43;99229.88;;;19.63;85.60
10115;BME280;5097;43.260;27.812;2022-09-29T02:29:27;99228.03;;;19.63;85.59
10115;BME280;5097;43.260;27.812;2022-09-29T02:32:11;99222.81;;;19.62;85.18
10115;BME280;5097;43.260;27.812;2022-09-29T02:34:56;99220.16;;;19.27;87.88
10115;BME280;5097;43.260;27.812;2022-09-29T02:37:47;99218.59;;;19.51;87.28
10115;BME280;5097;43.260;27.812;2022-09-29T02:40:44;99229.84;;;19.54;87.68
10115;BME280;5097;43.260;27.812;2022-09-29T02:43:45;99223.53;;;19.29;88.56
10115;BME280;5097;43.260;27.812;2022-09-29T02:46:43;99220.41;;;19.50;88.14
10115;BME280;5097;43.260;27.812;2022-09-29T02:49:43;99219.81;;;19.65;88.03
10115;BME280;5097;43.260;27.812;2022-09-29T02:52:41;99216.91;;;19.50;87.54
10115;BME280;5097;43.260;27.812;2022-09-29T02:55:34;99235.69;;;19.58;88.17
10115;BME280;5097;43.260;27.812;2022-09-29T02:58:27;99231.47;;;19.47;87.91
10115;BME280;5097;43.260;27.812;2022-09-29T03:01:13;99219.22;;;19.36;87.95
10115;BME280;5097;43.260;27.812;2022-09-29T03:03:58;99224.66;;;19.18;88.52
10115;BME280;5097;43.260;27.812;2022-09-29T03:06:46;99232.06;;;18.98;89.45
10115;BME280;5097;43.260;27.812;2022-09-29T03:09:30;99207.16;;;18.80;89.36
10115;BME280;5097;43.260;27.812;2022-09-29T03:12:14;99217.00;;;18.79;89.90
10115;BME280;5097;43.260;27.812;2022-09-29T03:15:01;99216.28;;;18.69;91.38
10115;BME280;5097;43.260;27.812;2022-09-29T03:17:45;99230.16;;;18.72;91.51
10115;BME280;5097;43.260;27.812;2022-09-29T03:20:29;99227.00;;;18.69;92.20
10115;BME280;5097;43.260;27.812;2022-09-29T03:23:12;99224.97;;;18.71;93.28
10115;BME280;5097;43.260;27.812;2022-09-29T03:25:56;99226.44;;;18.65;92.94
10115;BME280;5097;43.260;27.812;2022-09-29T03:28:40;99231.97;;;18.64;93.11
10115;BME280;5097;43.260;27.812;2022-09-29T03:31:26;99233.56;;;18.56;92.26
10115;BME280;5097;43.260;27.812;2022-09-29T03:34:10;99217.28;;;18.50;92.53
10115;BME280;5097;43.260;27.812;2022-09-29T03:36:54;99235.78;;;18.61;91.79
10115;BME280;5097;43.260;27.812;2022-09-29T03:39:39;99204.72;;;18.24;91.89
10115;BME280;5097;43.260;27.812;2022-09-29T03:42:23;99200.06;;;18.26;91.08
10115;BME280;5097;43.260;27.812;2022-09-29T03:45:09;99198.78;;;18.30;90.31
10115;BME280;5097;43.260;27.812;2022-09-29T03:47:55;99243.53;;;18.46;88.89
10115;BME280;5097;43.260;27.812;2022-09-29T03:50:39;99205.81;;;17.95;88.11
10115;BME280;5097;43.260;27.812;2022-09-29T03:53:23;99201.19;;;17.87;88.45
10115;BME280;5097;43.260;27.812;2022-09-29T03:56:07;99222.91;;;18.02;88.51
10115;BME280;5097;43.260;27.812;2022-09-29T03:58:51;99187.97;;;17.86;87.72
10115;BME280;5097;43.260;27.812;2022-09-29T04:01:35;99192.53;;;17.57;88.53
10115;BME280;5097;43.260;27.812;2022-09-29T04:04:21;99190.59;;;17.50;88.96
10115;BME280;5097;43.260;27.812;2022-09-29T04:07:05;99219.66;;;17.53;90.69
10115;BME280;5097;43.260;27.812;2022-09-29T04:09:49;99213.50;;;17.70;88.63
10115;BME280;5097;43.260;27.812;2022-09-29T04:12:33;99196.34;;;17.55;88.62
10115;BME280;5097;43.260;27.812;2022-09-29T04:15:17;99199.97;;;17.26;90.53
10115;BME280;5097;43.260;27.812;2022-09-29T04:18:01;99245.06;;;17.57;90.82
10115;BME280;5097;43.260;27.812;2022-09-29T04:20:47;99203.00;;;17.41;91.06
10115;BME280;5097;43.260;27.812;2022-09-29T04:23:31;99238.44;;;17.61;92.24
10115;BME280;5097;43.260;27.812;2022-09-29T04:26:15;99205.50;;;17.42;91.74
10115;BME280;5097;43.260;27.812;2022-09-29T04:29:00;99243.28;;;17.75;91.22
10115;BME280;5097;43.260;27.812;2022-09-29T04:31:44;99205.31;;;17.54;91.13
10115;BME280;5097;43.260;27.812;2022-09-29T04:34:28;99182.34;;;17.43;91.48
10115;BME280;5097;43.260;27.812;2022-09-29T04:37:14;99230.41;;;17.71;90.54
10115;BME280;5097;43.260;27.812;2022-09-29T04:39:58;99191.16;;;17.16;92.06
10115;BME280;5097;43.260;27.812;2022-09-29T04:42:42;99230.28;;;17.63;92.09
10115;BME280;5097;43.260;27.812;2022-09-29T04:45:26;99227.25;;;17.75;92.13
10115;BME280;5097;43.260;27.812;2022-09-29T04:48:10;99200.94;;;17.81;91.34
10115;BME280;5097;43.260;27.812;2022-09-29T04:50:54;99204.00;;;17.86;90.33
10115;BME280;5097;43.260;27.812;2022-09-29T04:53:39;99205.66;;;17.87;90.12
10115;BME280;5097;43.260;27.812;2022-09-29T04:56:23;99244.44;;;18.19;88.90
10115;BME280;5097;43.260;27.812;2022-09-29T04:59:12;99206.56;;;18.23;88.14
10115;BME280;5097;43.260;27.812;2022-09-29T05:01:57;99247.63;;;18.58;87.25
10115;BME280;5097;43.260;27.812;2022-09-29T05:04:41;99259.81;;;18.79;86.65
10115;BME280;5097;43.260;27.812;2022-09-29T05:07:25;99260.25;;;18.66;86.17
10115;BME280;5097;43.260;27.812;2022-09-29T05:10:11;99264.50;;;18.59;85.64
10115;BME280;5097;43.260;27.812;2022-09-29T05:12:55;99242.00;;;18.43;86.04
10115;BME280;5097;43.260;27.812;2022-09-29T05:15:39;99260.63;;;18.53;84.97
10115;BME280;5097;43.260;27.812;2022-09-29T05:18:23;99257.19;;;18.61;84.31
10115;BME280;5097;43.260;27.812;2022-09-29T05:21:07;99268.09;;;18.68;84.57
10115;BME280;5097;43.260;27.812;2022-09-29T05:24:09;99265.72;;;18.83;84.16
10115;BME280;5097;43.260;27.812;2022-09-29T05:26:57;99275.19;;;19.21;82.67
10115;BME280;5097;43.260;27.812;2022-09-29T05:29:41;99279.84;;;19.19;82.59
10115;BME280;5097;43.260;27.812;2022-09-29T05:32:25;99267.41;;;19.36;83.51
10115;BME280;5097;43.260;27.812;2022-09-29T05:35:09;99283.66;;;19.69;82.33
10115;BME280;5097;43.260;27.812;2022-09-29T05:37:52;99284.75;;;19.93;81.83
10115;BME280;5097;43.260;27.812;2022-09-29T05:40:36;99263.22;;;19.76;81.07
10115;BME280;5097;43.260;27.812;2022-09-29T05:43:22;99292.34;;;20.06;81.23
10115;BME280;5097;43.260;27.812;2022-09-29T05:46:08;99179.31;;;19.68;80.95
10115;BME280;5097;43.260;27.812;2022-09-29T05:48:52;99279.47;;;20.26;81.34
10115;BME280;5097;43.260;27.812;2022-09-29T05:51:36;99283.84;;;20.35;81.62
10115;BME280;5097;43.260;27.812;2022-09-29T05:54:20;99276.44;;;20.21;81.55
10115;BME280;5097;43.260;27.812;2022-09-29T05:57:05;99272.25;;;20.26;82.21
10115;BME280;5097;43.260;27.812;2022-09-29T05:59:50;99277.31;;;20.30;82.19
10115;BME280;5097;43.260;27.812;2022-09-29T06:02:34;99266.59;;;20.54;79.82
10115;BME280;5097;43.260;27.812;2022-09-29T06:05:18;99275.47;;;20.47;78.53
10115;BME280;5097;43.260;27.812;2022-09-29T06:08:02;99275.16;;;20.83;76.27
10115;BME280;5097;43.260;27.812;2022-09-29T06:10:46;99266.44;;;20.89;69.86
10115;BME280;5097;43.260;27.812;2022-09-29T06:13:30;99266.44;;;20.97;68.93
10115;BME280;5097;43.260;27.812;2022-09-29T06:16:17;99271.09;;;21.20;67.92
10115;BME280;5097;43.260;27.812;2022-09-29T06:19:02;99271.03;;;21.36;68.00
10115;BME280;5097;43.260;27.812;2022-09-29T06:21:47;99271.88;;;21.53;69.03
10115;BME280;5097;43.260;27.812;2022-09-29T06:24:30;99259.94;;;21.56;68.76
10115;BME280;5097;43.260;27.812;2022-09-29T06:27:14;99276.38;;;21.61;66.62
10115;BME280;5097;43.260;27.812;2022-09-29T06:29:58;99282.41;;;21.63;66.36
10115;BME280;5097;43.260;27.812;2022-09-29T06:32:46;99286.09;;;21.70;64.37
10115;BME280;5097;43.260;27.812;2022-09-29T06:35:32;99258.72;;;21.67;64.04
10115;BME280;5097;43.260;27.812;2022-09-29T06:38:33;99260.19;;;21.77;65.31
10115;BME280;5097;43.260;27.812;2022-09-29T06:41:17;99289.59;;;22.10;62.23
10115;BME280;5097;43.260;27.812;2022-09-29T06:44:04;99289.53;;;22.19;61.54
10115;BME280;5097;43.260;27.812;2022-09-29T06:46:49;99262.75;;;22.02;59.79
10115;BME280;5097;43.260;27.812;2022-09-29T06:49:34;99278.41;;;22.53;57.70
10115;BME280;5097;43.260;27.812;2022-09-29T06:52:18;99283.06;;;22.36;59.97
10115;BME280;5097;43.260;27.812;2022-09-29T06:55:03;99283.75;;;22.38;61.53
10115;BME280;5097;43.260;27.812;2022-09-29T06:57:47;99293.81;;;22.59;61.08
10115;BME280;5097;43.260;27.812;2022-09-29T07:00:31;99305.81;;;22.95;58.65
10115;BME280;5097;43.260;27.812;2022-09-29T07:03:16;99303.44;;;22.77;58.96
10115;BME280;5097;43.260;27.812;2022-09-29T07:06:03;99296.22;;;23.16;58.18
10115;BME280;5097;43.260;27.812;2022-09-29T07:09:01;99305.53;;;22.90;58.62
10115;BME280;5097;43.260;27.812;2022-09-29T07:11:47;99299.41;;;23.34;57.86
10115;BME280;5097;43.260;27.812;2022-09-29T07:14:31;99267.91;;;22.82;56.81
10115;BME280;5097;43.260;27.812;2022-09-29T07:17:17;99305.03;;;23.09;55.42
10115;BME280;5097;43.260;27.812;2022-09-29T07:20:00;99268.81;;;22.74;56.33
10115;BME280;5097;43.260;27.812;2022-09-29T07:22:47;99294.56;;;22.91;57.61
10115;BME280;5097;43.260;27.812;2022-09-29T07:25:30;99290.19;;;23.14;55.17
10115;BME280;5097;43.260;27.812;2022-09-29T07:28:33;99303.97;;;23.49;54.96
10115;BME280;5097;43.260;27.812;2022-09-29T07:31:19;99312.50;;;23.37;54.37
10115;BME280;5097;43.260;27.812;2022-09-29T07:34:04;99312.78;;;23.42;54.05
10115;BME280;5097;43.260;27.812;2022-09-29T07:36:48;99303.41;;;23.38;55.35
10115;BME280;5097;43.260;27.812;2022-09-29T07:39:33;99309.34;;;23.79;54.14
10115;BME280;5097;43.260;27.812;2022-09-29T07:42:17;99295.50;;;23.67;54.25
10115;BME280;5097;43.260;27.812;2022-09-29T07:45:09;99302.47;;;23.61;53.90
10115;BME280;5097;43.260;27.812;2022-09-29T07:47:55;99298.66;;;23.70;54.00
10115;BME280;5097;43.260;27.812;2022-09-29T07:50:39;99300.88;;;23.22;54.57
10115;BME280;5097;43.260;27.812;2022-09-29T07:53:26;99314.09;;;23.76;53.51
10115;BME280;5097;43.260;27.812;2022-09-29T07:56:13;99321.91;;;23.71;54.05
10115;BME280;5097;43.260;27.812;2022-09-29T07:58:59;99310.34;;;23.77;54.49
10115;BME280;5097;43.260;27.812;2022-09-29T08:01:44;99307.88;;;23.91;54.34
10115;BME280;5097;43.260;27.812;2022-09-29T08:04:28;99306.88;;;24.29;53.34
10115;BME280;5097;43.260;27.812;2022-09-29T08:07:12;99307.81;;;24.21;52.92
10115;BME280;5097;43.260;27.812;2022-09-29T08:09:57;99301.16;;;24.38;53.52
10115;BME280;5097;43.260;27.812;2022-09-29T08:12:58;99297.53;;;24.31;53.80
10115;BME280;5097;43.260;27.812;2022-09-29T08:15:42;99304.75;;;24.46;51.92
10115;BME280;5097;43.260;27.812;2022-09-29T08:18:26;99285.06;;;24.95;51.78
10115;BME280;5097;43.260;27.812;2022-09-29T08:21:11;99296.44;;;25.12;51.39
10115;BME280;5097;43.260;27.812;2022-09-29T08:23:55;99303.78;;;25.47;51.39
10115;BME280;5097;43.260;27.812;2022-09-29T08:26:39;99302.28;;;25.44;50.93
10115;BME280;5097;43.260;27.812;2022-09-29T08:29:27;99301.06;;;25.47;50.86
10115;BME280;5097;43.260;27.812;2022-09-29T08:32:25;99305.34;;;25.13;51.61
10115;BME280;5097;43.260;27.812;2022-09-29T08:35:08;99298.53;;;25.17;51.14
10115;BME280;5097;43.260;27.812;2022-09-29T08:37:52;99296.47;;;25.47;50.88
10115;BME280;5097;43.260;27.812;2022-09-29T08:40:39;99302.63;;;25.34;50.62
10115;BME280;5097;43.260;27.812;2022-09-29T08:43:26;99291.94;;;25.26;51.27
10115;BME280;5097;43.260;27.812;2022-09-29T08:46:23;99296.97;;;25.29;51.57
10115;BME280;5097;43.260;27.812;2022-09-29T08:49:21;99296.50;;;25.54;50.77
10115;BME280;5097;43.260;27.812;2022-09-29T08:52:19;99286.28;;;25.21;50.75
10115;BME280;5097;43.260;27.812;2022-09-29T08:55:19;99305.09;;;25.64;50.23
10115;BME280;5097;43.260;27.812;2022-09-29T08:58:09;99308.66;;;25.71;50.02
10115;BME280;5097;43.260;27.812;2022-09-29T09:01:02;99296.78;;;25.66;50.09
10115;BME280;5097;43.260;27.812;2022-09-29T09:07:06;99294.84;;;25.53;50.33
10115;BME280;5097;43.260;27.812;2022-09-29T09:10:07;99298.63;;;25.65;49.85
10115;BME280;5097;43.260;27.812;2022-09-29T09:13:04;99291.66;;;25.77;49.82
10115;BME280;5097;43.260;27.812;2022-09-29T09:16:13;99294.22;;;25.99;49.40
10115;BME280;5097;43.260;27.812;2022-09-29T09:19:24;99295.03;;;25.93;49.22
10115;BME280;5097;43.260;27.812;2022-09-29T09:22:19;99283.94;;;25.39;50.54
10115;BME280;5097;43.260;27.812;2022-09-29T09:25:13;99269.72;;;25.59;49.50
10115;BME280;5097;43.260;27.812;2022-09-29T09:28:09;99292.13;;;25.94;48.67
10115;BME280;5097;43.260;27.812;2022-09-29T09:30:57;99285.22;;;25.92;48.71
10115;BME280;5097;43.260;27.812;2022-09-29T09:33:47;99293.34;;;26.40;47.43
10115;BME280;5097;43.260;27.812;2022-09-29T09:36:51;99285.63;;;26.44;46.77
10115;BME280;5097;43.260;27.812;2022-09-29T09:39:55;99291.03;;;26.51;46.81
10115;BME280;5097;43.260;27.812;2022-09-29T09:42:44;99293.72;;;26.37;46.77
10115;BME280;5097;43.260;27.812;2022-09-29T09:45:32;99298.56;;;26.62;46.18
10115;BME280;5097;43.260;27.812;2022-09-29T09:48:20;99300.44;;;26.55;46.34
10115;BME280;5097;43.260;27.812;2022-09-29T09:51:32;99309.47;;;26.89;46.07
10115;BME280;5097;43.260;27.812;2022-09-29T09:54:25;99304.03;;;27.16;45.42
10115;BME280;5097;43.260;27.812;2022-09-29T10:00:21;99304.59;;;28.17;43.72
10115;BME280;5097;43.260;27.812;2022-09-29T10:03:07;99307.97;;;27.47;44.47
10115;BME280;5097;43.260;27.812;2022-09-29T10:05:51;99302.06;;;28.22;43.77
10115;BME280;5097;43.260;27.812;2022-09-29T10:08:38;99307.34;;;27.11;44.63
10115;BME280;5097;43.260;27.812;2022-09-29T10:11:27;99310.22;;;28.22;42.87
10115;BME280;5097;43.260;27.812;2022-09-29T10:14:18;99303.03;;;28.34;43.04
10115;BME280;5097;43.260;27.812;2022-09-29T10:17:06;99316.78;;;28.78;42.32
10115;BME280;5097;43.260;27.812;2022-09-29T10:19:56;99310.34;;;28.72;42.93
10115;BME280;5097;43.260;27.812;2022-09-29T10:22:40;99293.22;;;28.97;42.62
10115;BME280;5097;43.260;27.812;2022-09-29T10:25:24;99297.00;;;28.32;43.95
10115;BME280;5097;43.260;27.812;2022-09-29T10:28:13;99306.19;;;28.31;43.82
10115;BME280;5097;43.260;27.812;2022-09-29T10:30:57;99303.50;;;28.63;43.11
10115;BME280;5097;43.260;27.812;2022-09-29T10:33:45;99296.03;;;28.20;44.65
10115;BME280;5097;43.260;27.812;2022-09-29T10:36:49;99292.03;;;28.22;44.99
10115;BME280;5097;43.260;27.812;2022-09-29T10:39:38;99273.63;;;28.31;45.19
10115;BME280;5097;43.260;27.812;2022-09-29T10:42:31;99278.78;;;28.39;44.40
10115;BME280;5097;43.260;27.812;2022-09-29T10:45:19;99279.63;;;28.97;42.73
10115;BME280;5097;43.260;27.812;2022-09-29T10:48:10;99280.81;;;28.51;43.85
10115;BME280;5097;43.260;27.812;2022-09-29T10:50:57;99277.22;;;29.07;42.92
10115;BME280;5097;43.260;27.812;2022-09-29T10:53:42;99243.06;;;29.37;41.73
10115;BME280;5097;43.260;27.812;2022-09-29T10:56:26;99260.44;;;28.67;43.53
10115;BME280;5097;43.260;27.812;2022-09-29T10:59:11;99268.84;;;28.26;44.44
10115;BME280;5097;43.260;27.812;2022-09-29T11:01:58;99271.59;;;28.20;45.19
10115;BME280;5097;43.260;27.812;2022-09-29T11:04:44;99272.88;;;28.17;46.71
10115;BME280;5097;43.260;27.812;2022-09-29T11:07:30;99272.38;;;28.27;47.97
10115;BME280;5097;43.260;27.812;2022-09-29T11:10:29;99261.53;;;27.82;48.71
10115;BME280;5097;43.260;27.812;2022-09-29T11:13:36;99266.63;;;28.10;48.36
10115;BME280;5097;43.260;27.812;2022-09-29T11:16:26;99261.44;;;27.43;49.73
10115;BME280;5097;43.260;27.812;2022-09-29T11:19:13;99260.59;;;27.56;48.44
10115;BME280;5097;43.260;27.812;2022-09-29T11:22:16;99254.31;;;27.49;49.57
10115;BME280;5097;43.260;27.812;2022-09-29T11:25:13;99222.47;;;27.24;50.70
10115;BME280;5097;43.260;27.812;2022-09-29T11:31:24;99261.72;;;26.88;52.35
10115;BME280;5097;43.260;27.812;2022-09-29T11:34:38;99245.25;;;26.96;52.43
10115;BME280;5097;43.260;27.812;2022-09-29T11:37:45;99240.22;;;26.59;53.55
10115;BME280;5097;43.260;27.812;2022-09-29T11:40:40;99271.50;;;26.69;53.79
10115;BME280;5097;43.260;27.812;2022-09-29T11:43:42;99243.91;;;26.05;55.64
10115;BME280;5097;43.260;27.812;2022-09-29T11:46:44;99248.44;;;25.21;67.43
10115;BME280;5097;43.260;27.812;2022-09-29T11:52:49;99260.66;;;24.38;71.84
10115;BME280;5097;43.260;27.812;2022-09-29T11:55:53;99275.00;;;22.98;79.03
10115;BME280;5097;43.260;27.812;2022-09-29T11:58:50;99285.78;;;23.13;80.08
10115;BME280;5097;43.260;27.812;2022-09-29T12:01:47;99296.28;;;23.07;79.15
10115;BME280;5097;43.260;27.812;2022-09-29T12:04:44;99280.72;;;22.94;81.23
10115;BME280;5097;43.260;27.812;2022-09-29T12:07:39;99304.97;;;23.18;79.24
10115;BME280;5097;43.260;27.812;2022-09-29T12:10:43;99295.91;;;23.10;83.09
10115;BME280;5097;43.260;27.812;2022-09-29T12:13:38;99260.06;;;23.10;83.75
10115;BME280;5097;43.260;27.812;2022-09-29T12:16:28;99289.59;;;23.03;82.03
10115;BME280;5097;43.260;27.812;2022-09-29T12:19:15;99288.38;;;23.06;80.21
10115;BME280;5097;43.260;27.812;2022-09-29T12:22:02;99283.47;;;23.09;79.59
10115;BME280;5097;43.260;27.812;2022-09-29T12:24:53;99273.84;;;23.30;78.34
10115;BME280;5097;43.260;27.812;2022-09-29T12:27:39;99258.78;;;23.36;78.10
10115;BME280;5097;43.260;27.812;2022-09-29T12:30:27;99280.28;;;23.59;77.27
10115;BME280;5097;43.260;27.812;2022-09-29T12:33:16;99242.78;;;23.64;78.13
10115;BME280;5097;43.260;27.812;2022-09-29T12:36:14;99283.06;;;23.66;78.13
10115;BME280;5097;43.260;27.812;2022-09-29T12:39:33;99284.56;;;24.20;75.04
10115;BME280;5097;43.260;27.812;2022-09-29T12:42:31;99280.53;;;24.74;74.45
10115;BME280;5097;43.260;27.812;2022-09-29T12:45:24;99246.88;;;25.33;71.09
10115;BME280;5097;43.260;27.812;2022-09-29T12:48:24;99279.50;;;25.60;69.28
10115;BME280;5097;43.260;27.812;2022-09-29T12:51:15;99266.06;;;26.49;67.44
10115;BME280;5097;43.260;27.812;2022-09-29T12:54:05;99279.59;;;26.49;65.66
10115;BME280;5097;43.260;27.812;2022-09-29T12:57:01;99278.81;;;26.95;64.71
10115;BME280;5097;43.260;27.812;2022-09-29T12:59:51;99277.31;;;26.39;64.81
10115;BME280;5097;43.260;27.812;2022-09-29T13:03:02;99277.31;;;26.39;66.03
10115;BME280;5097;43.260;27.812;2022-09-29T13:12:50;99271.66;;;25.08;70.88
10115;BME280;5097;43.260;27.812;2022-09-29T13:15:50;99276.66;;;25.75;68.81
10115;BME280;5097;43.260;27.812;2022-09-29T13:22:40;99286.94;;;25.51;69.12
10115;BME280;5097;43.260;27.812;2022-09-29T13:25:36;99272.09;;;25.40;67.85
10115;BME280;5097;43.260;27.812;2022-09-29T13:28:29;99267.97;;;24.44;71.60
10115;BME280;5097;43.260;27.812;2022-09-29T13:31:17;99295.94;;;25.02;71.34
10115;BME280;5097;43.260;27.812;2022-09-29T13:34:04;99288.16;;;25.49;68.26
10115;BME280;5097;43.260;27.812;2022-09-29T13:36:48;99266.44;;;24.57;71.09
10115;BME280;5097;43.260;27.812;2022-09-29T13:39:33;99296.84;;;25.09;69.85
10115;BME280;5097;43.260;27.812;2022-09-29T13:42:38;99291.44;;;24.87;70.62
10115;BME280;5097;43.260;27.812;2022-09-29T13:45:41;99300.06;;;25.26;69.57
10115;BME280;5097;43.260;27.812;2022-09-29T13:48:45;99282.94;;;25.89;65.16
10115;BME280;5097;43.260;27.812;2022-09-29T13:51:50;99292.31;;;25.45;67.25
10115;BME280;5097;43.260;27.812;2022-09-29T13:54:39;99295.72;;;25.60;66.75
10115;BME280;5097;43.260;27.812;2022-09-29T13:57:23;99292.81;;;24.76;66.92
10115;BME280;5097;43.260;27.812;2022-09-29T14:00:19;99311.34;;;24.80;68.56
10115;BME280;5097;43.260;27.812;2022-09-29T14:03:20;99311.88;;;24.97;66.37
10115;BME280;5097;43.260;27.812;2022-09-29T14:06:11;99314.84;;;25.30;65.42
10115;BME280;5097;43.260;27.812;2022-09-29T14:09:17;99302.09;;;24.89;66.94
10115;BME280;5097;43.260;27.812;2022-09-29T14:12:07;99306.22;;;24.26;70.03
10115;BME280;5097;43.260;27.812;2022-09-29T14:14:54;99298.84;;;23.84;71.03
10115;BME280;5097;43.260;27.812;2022-09-29T14:17:44;99273.28;;;23.80;70.77
10115;BME280;5097;43.260;27.812;2022-09-29T14:20:33;99265.41;;;24.15;68.89
10115;BME280;5097;43.260;27.812;2022-09-29T14:23:46;99283.94;;;24.39;67.21
10115;BME280;5097;43.260;27.812;2022-09-29T14:26:43;99276.66;;;24.62;66.08
10115;BME280;5097;43.260;27.812;2022-09-29T14:29:29;99277.72;;;24.82;66.25
10115;BME280;5097;43.260;27.812;2022-09-29T14:32:18;99278.00;;;24.94;63.86
10115;BME280;5097;43.260;27.812;2022-09-29T14:35:14;99264.59;;;24.36;67.03
10115;BME280;5097;43.260;27.812;2022-09-29T14:38:03;99273.50;;;24.36;69.33
10115;BME280;5097;43.260;27.812;2022-09-29T14:40:59;99263.09;;;24.33;69.42
10115;BME280;5097;43.260;27.812;2022-09-29T14:43:45;99274.97;;;24.60;68.14
10115;BME280;5097;43.260;27.812;2022-09-29T14:46:55;99281.22;;;24.61;71.86
10115;BME280;5097;43.260;27.812;2022-09-29T14:50:20;99264.00;;;24.19;70.48
10115;BME280;5097;43.260;27.812;2022-09-29T14:53:46;99268.50;;;24.76;68.07
10115;BME280;5097;43.260;27.812;2022-09-29T14:56:48;99268.84;;;24.67;67.41
10115;BME280;5097;43.260;27.812;2022-09-29T14:59:46;99271.03;;;25.06;67.63
10115;BME280;5097;43.260;27.812;2022-09-29T15:02:33;99282.13;;;25.47;65.39
10115;BME280;5097;43.260;27.812;2022-09-29T15:05:25;99289.94;;;25.70;65.31
10115;BME280;5097;43.260;27.812;2022-09-29T15:08:26;99295.28;;;25.56;65.49
10115;BME280;5097;43.260;27.812;2022-09-29T15:11:24;99282.13;;;25.47;65.09
10115;BME280;5097;43.260;27.812;2022-09-29T15:14:23;99296.47;;;25.19;66.65
10115;BME280;5097;43.260;27.812;2022-09-29T15:17:23;99303.59;;;24.98;67.79
10115;BME280;5097;43.260;27.812;2022-09-29T15:20:15;99317.00;;;24.63;69.66
10115;BME280;5097;43.260;27.812;2022-09-29T15:26:32;99297.81;;;24.58;69.46
10115;BME280;5097;43.260;27.812;2022-09-29T15:29:17;99264.09;;;24.10;69.05
10115;BME280;5097;43.260;27.812;2022-09-29T15:32:01;99279.91;;;24.14;70.62